Knights Landing, California
Current Conditions -  °F | °C
As of 6:53 PM on Friday 28 Nov 2014 (Local Time) from KSMF Reporting Station
Broken Clouds Broken Clouds  
Wind Chill: 58°   Ceiling: 8500
Heat Index: 58°   Visibility: 10mi
Dew Point: 49°   Wind: 3mph
Humidity: 72%   Direction: 180°S
Pressure: 29.85"   Gusts: NA
Location:  38.8°N, 121.72°W
Report Text: KSMF 290253Z 18003KT 10SM BKN085 14/09 A2985 RMK AO2 SLP107 T01440094 55012
Loading
Personal Weather Stations






























Interactive Weather Map New forecast layout! Learn more

10-Day Weather Forecast

Advertisements
Track Severe Weather on mobile